Aeroporto :
LOGIN :

Iscrizione | Disclaimer

   EN    FR    IT 

 










Sommario :    VFR   VFR Marginale   IFR   IFR Intensivo   IFR Molto Intensivo
Visibilità : 
Base nubi : 
>= 8 km
>= 3000ft
5 / 8 km
1000 / 3000 ft
1500m / 5 km
500 / 1000 ft
800 / 1500m
200 / 500 ft
< 800m
< 200 ft
Simboli :   Temporali  Nebbia  Neve Forte  Precipitazioni Forti  Vento > 20 kt
SIGMETs :   Varie  Temporali  Ghiacco  Turbolenza  Onda orograficha  Ceneri Vulcaniche






- Altitudine del aeroporto : 322 ft


LHSN - Szolnok

ULTIMO METAR :
  • 031715Z 00000KT CAVOK 13/M02 Q1013 NOSIG RMK BLU

METARs OBSOLETI :
  • 031645Z 29002KT CAVOK 14/M03 Q1013 NOSIG RMK BLU
  • 031615Z 27006KT 230V290 CAVOK 15/M03 Q1013 NOSIG RMK BLU
  • 031545Z 28006KT 240V330 CAVOK 15/M03 Q1013 NOSIG RMK BLU
  • 031515Z 28006KT 230V320 CAVOK 16/M03 Q1012 NOSIG RMK BLU
  • 031445Z VRB04KT CAVOK 16/M02 Q1012 NOSIG RMK BLU

TAF TAF LHSN
Valido dal 03 a 18 ore il 04 a 03 ore UTC


031715Z 0318/0403 VRB02KT CAVOK
BECMG 0400/0402 03007KT



MetMap, La meteo Aeronautica in un colpo d'occhio ! - Copyright ORBIFLY Dicembre 2007 - Disclaimer

ORBIFLY MET'MAP TEAM :

Programmazione e sviluppo : Alexandra Zaïnal
Concezione : Baudouin d'Aumeries
Aiuto per la programmazione : Marc-Olivier Méhu
Supporto tecnico e logistico : Manuel Goepfert
Aiuto per la traduzione : Arnaldo La Scala

Contatto : metmap@orbifly.com




FONTI E CREDITI :

   NOAA